sensor_id;sensor_type;location;lat;lon;timestamp;pressure;altitude;pressure_sealevel;temperature;humidity
58919;BME280;44704;50.122;19.932;2022-07-29T00:00:52;98702.32;;;16.54;61.15
58919;BME280;44704;50.122;19.932;2022-07-29T00:03:22;98705.19;;;16.52;61.18
58919;BME280;44704;50.122;19.932;2022-07-29T00:05:48;98701.23;;;16.49;60.59
58919;BME280;44704;50.122;19.932;2022-07-29T00:08:15;98706.35;;;16.48;60.80
58919;BME280;44704;50.122;19.932;2022-07-29T00:10:42;98704.59;;;16.47;60.71
58919;BME280;44704;50.122;19.932;2022-07-29T00:13:08;98708.48;;;16.44;60.68
58919;BME280;44704;50.122;19.932;2022-07-29T00:15:37;98702.73;;;16.42;60.82
58919;BME280;44704;50.122;19.932;2022-07-29T00:18:03;98707.45;;;16.41;60.83
58919;BME280;44704;50.122;19.932;2022-07-29T00:20:29;98706.69;;;16.40;60.59
58919;BME280;44704;50.122;19.932;2022-07-29T00:22:55;98707.67;;;16.40;60.38
58919;BME280;44704;50.122;19.932;2022-07-29T00:25:24;98711.57;;;16.40;60.78
58919;BME280;44704;50.122;19.932;2022-07-29T00:27:52;98708.44;;;16.41;60.57
58919;BME280;44704;50.122;19.932;2022-07-29T00:30:23;98703.27;;;16.42;60.63
58919;BME280;44704;50.122;19.932;2022-07-29T00:32:50;98707.28;;;16.42;60.27
58919;BME280;44704;50.122;19.932;2022-07-29T00:35:19;98712.63;;;16.44;60.54
58919;BME280;44704;50.122;19.932;2022-07-29T00:37:59;98711.29;;;16.45;60.32
58919;BME280;44704;50.122;19.932;2022-07-29T00:40:25;98714.48;;;16.47;60.41
58919;BME280;44704;50.122;19.932;2022-07-29T00:42:58;98713.22;;;16.48;60.42
58919;BME280;44704;50.122;19.932;2022-07-29T00:45:25;98706.67;;;16.48;60.47
58919;BME280;44704;50.122;19.932;2022-07-29T00:47:51;98704.70;;;16.48;60.42
58919;BME280;44704;50.122;19.932;2022-07-29T00:50:17;98704.05;;;16.48;60.50
58919;BME280;44704;50.122;19.932;2022-07-29T00:52:50;98699.64;;;16.47;60.44
58919;BME280;44704;50.122;19.932;2022-07-29T00:55:17;98694.91;;;16.44;60.46
58919;BME280;44704;50.122;19.932;2022-07-29T00:57:47;98690.19;;;16.43;60.47
58919;BME280;44704;50.122;19.932;2022-07-29T01:00:19;98693.70;;;16.42;60.49
58919;BME280;44704;50.122;19.932;2022-07-29T01:02:46;98688.77;;;16.43;60.62
58919;BME280;44704;50.122;19.932;2022-07-29T01:05:18;98686.23;;;16.42;60.40
58919;BME280;44704;50.122;19.932;2022-07-29T01:07:45;98682.49;;;16.40;60.59
58919;BME280;44704;50.122;19.932;2022-07-29T01:10:15;98682.17;;;16.39;60.43
58919;BME280;44704;50.122;19.932;2022-07-29T01:12:43;98685.90;;;16.38;60.67
58919;BME280;44704;50.122;19.932;2022-07-29T01:15:11;98693.23;;;16.37;60.73
58919;BME280;44704;50.122;19.932;2022-07-29T01:30:29;98675.58;;;16.35;60.81
58919;BME280;44704;50.122;19.932;2022-07-29T01:33:02;98674.42;;;16.35;61.02
58919;BME280;44704;50.122;19.932;2022-07-29T01:35:39;98672.17;;;16.36;60.90
58919;BME280;44704;50.122;19.932;2022-07-29T01:38:16;98673.33;;;16.36;60.86
58919;BME280;44704;50.122;19.932;2022-07-29T01:40:52;98673.54;;;16.34;61.02
58919;BME280;44704;50.122;19.932;2022-07-29T01:43:21;98678.83;;;16.32;61.14
58919;BME280;44704;50.122;19.932;2022-07-29T01:45:56;98678.83;;;16.31;60.97
58919;BME280;44704;50.122;19.932;2022-07-29T01:51:01;98680.21;;;16.30;61.01
58919;BME280;44704;50.122;19.932;2022-07-29T01:53:33;98678.84;;;16.29;61.04
58919;BME280;44704;50.122;19.932;2022-07-29T01:56:01;98685.05;;;16.27;61.22
58919;BME280;44704;50.122;19.932;2022-07-29T01:58:29;98684.27;;;16.24;61.29
58919;BME280;44704;50.122;19.932;2022-07-29T02:01:15;98679.38;;;16.22;61.30
58919;BME280;44704;50.122;19.932;2022-07-29T02:03:43;98673.84;;;16.19;61.21
58919;BME280;44704;50.122;19.932;2022-07-29T02:06:10;98672.91;;;16.17;61.39
58919;BME280;44704;50.122;19.932;2022-07-29T02:08:40;98668.73;;;16.15;61.31
58919;BME280;44704;50.122;19.932;2022-07-29T02:11:08;98667.42;;;16.13;61.53
58919;BME280;44704;50.122;19.932;2022-07-29T02:13:35;98665.39;;;16.09;61.39
58919;BME280;44704;50.122;19.932;2022-07-29T02:16:04;98667.31;;;16.05;61.25
58919;BME280;44704;50.122;19.932;2022-07-29T02:18:36;98668.64;;;16.02;61.43
58919;BME280;44704;50.122;19.932;2022-07-29T02:21:03;98663.90;;;16.00;61.63
58919;BME280;44704;50.122;19.932;2022-07-29T02:23:31;98657.83;;;15.96;61.99
58919;BME280;44704;50.122;19.932;2022-07-29T02:25:58;98656.39;;;15.93;61.81
58919;BME280;44704;50.122;19.932;2022-07-29T02:28:29;98653.15;;;15.90;62.06
58919;BME280;44704;50.122;19.932;2022-07-29T02:31:00;98645.84;;;15.88;62.13
58919;BME280;44704;50.122;19.932;2022-07-29T02:33:27;98643.27;;;15.86;62.41
58919;BME280;44704;50.122;19.932;2022-07-29T02:35:56;98638.05;;;15.85;62.29
58919;BME280;44704;50.122;19.932;2022-07-29T02:38:24;98642.88;;;15.84;62.41
58919;BME280;44704;50.122;19.932;2022-07-29T02:41:11;98640.25;;;15.82;62.32
58919;BME280;44704;50.122;19.932;2022-07-29T02:43:43;98642.27;;;15.80;62.31
58919;BME280;44704;50.122;19.932;2022-07-29T02:46:11;98648.70;;;15.78;62.40
58919;BME280;44704;50.122;19.932;2022-07-29T02:48:41;98640.56;;;15.76;62.40
58919;BME280;44704;50.122;19.932;2022-07-29T02:51:12;98637.91;;;15.74;62.35
58919;BME280;44704;50.122;19.932;2022-07-29T02:53:41;98630.38;;;15.72;62.55
58919;BME280;44704;50.122;19.932;2022-07-29T02:56:13;98626.92;;;15.69;62.92
58919;BME280;44704;50.122;19.932;2022-07-29T02:58:41;98628.23;;;15.68;62.84
58919;BME280;44704;50.122;19.932;2022-07-29T03:01:11;98627.90;;;15.67;62.90
58919;BME280;44704;50.122;19.932;2022-07-29T03:03:39;98631.98;;;15.65;62.75
58919;BME280;44704;50.122;19.932;2022-07-29T03:06:07;98628.51;;;15.64;62.75
58919;BME280;44704;50.122;19.932;2022-07-29T03:08:34;98633.13;;;15.63;62.78
58919;BME280;44704;50.122;19.932;2022-07-29T03:11:01;98630.98;;;15.61;63.07
58919;BME280;44704;50.122;19.932;2022-07-29T03:13:27;98637.18;;;15.59;62.89
58919;BME280;44704;50.122;19.932;2022-07-29T03:15:55;98635.86;;;15.57;63.16
58919;BME280;44704;50.122;19.932;2022-07-29T03:18:21;98635.48;;;15.56;63.41
58919;BME280;44704;50.122;19.932;2022-07-29T03:20:48;98638.02;;;15.55;63.67
58919;BME280;44704;50.122;19.932;2022-07-29T03:23:18;98639.32;;;15.54;63.49
58919;BME280;44704;50.122;19.932;2022-07-29T03:25:44;98645.57;;;15.52;63.48
58919;BME280;44704;50.122;19.932;2022-07-29T03:28:10;98643.71;;;15.51;63.53
58919;BME280;44704;50.122;19.932;2022-07-29T03:30:36;98643.05;;;15.49;63.60
58919;BME280;44704;50.122;19.932;2022-07-29T03:33:02;98645.18;;;15.48;63.71
58919;BME280;44704;50.122;19.932;2022-07-29T03:35:28;98653.92;;;15.48;63.67
58919;BME280;44704;50.122;19.932;2022-07-29T03:37:57;98656.61;;;15.50;63.75
58919;BME280;44704;50.122;19.932;2022-07-29T03:40:33;98655.58;;;15.55;63.93
58919;BME280;44704;50.122;19.932;2022-07-29T03:43:01;98652.61;;;15.59;64.02
58919;BME280;44704;50.122;19.932;2022-07-29T03:45:28;98648.44;;;15.63;64.08
58919;BME280;44704;50.122;19.932;2022-07-29T03:47:57;98649.70;;;15.66;63.96
58919;BME280;44704;50.122;19.932;2022-07-29T03:50:25;98649.60;;;15.66;64.26
58919;BME280;44704;50.122;19.932;2022-07-29T03:52:51;98647.77;;;15.64;64.36
58919;BME280;44704;50.122;19.932;2022-07-29T03:55:17;98653.83;;;15.63;64.28
58919;BME280;44704;50.122;19.932;2022-07-29T03:57:44;98657.61;;;15.62;64.41
58919;BME280;44704;50.122;19.932;2022-07-29T04:00:25;98660.47;;;15.64;64.52
58919;BME280;44704;50.122;19.932;2022-07-29T04:02:51;98659.05;;;15.63;64.49
58919;BME280;44704;50.122;19.932;2022-07-29T04:05:18;98656.30;;;15.62;64.58
58919;BME280;44704;50.122;19.932;2022-07-29T04:07:45;98660.09;;;15.62;64.84
58919;BME280;44704;50.122;19.932;2022-07-29T04:10:11;98658.05;;;15.62;64.86
58919;BME280;44704;50.122;19.932;2022-07-29T04:12:37;98654.92;;;15.63;64.66
58919;BME280;44704;50.122;19.932;2022-07-29T04:15:03;98655.96;;;15.63;64.56
58919;BME280;44704;50.122;19.932;2022-07-29T04:17:30;98648.13;;;15.65;64.77
58919;BME280;44704;50.122;19.932;2022-07-29T04:19:56;98645.82;;;15.66;65.03
58919;BME280;44704;50.122;19.932;2022-07-29T04:22:22;98643.77;;;15.67;64.74
58919;BME280;44704;50.122;19.932;2022-07-29T04:24:48;98639.66;;;15.68;64.93
58919;BME280;44704;50.122;19.932;2022-07-29T04:27:14;98639.77;;;15.69;64.49
58919;BME280;44704;50.122;19.932;2022-07-29T04:29:40;98638.90;;;15.71;64.72
58919;BME280;44704;50.122;19.932;2022-07-29T04:32:07;98641.44;;;15.74;64.62
58919;BME280;44704;50.122;19.932;2022-07-29T04:34:33;98647.38;;;15.80;64.59
58919;BME280;44704;50.122;19.932;2022-07-29T04:36:59;98644.52;;;15.85;64.63
58919;BME280;44704;50.122;19.932;2022-07-29T04:39:25;98645.56;;;15.93;64.66
58919;BME280;44704;50.122;19.932;2022-07-29T04:41:51;98645.51;;;16.00;64.76
58919;BME280;44704;50.122;19.932;2022-07-29T04:44:17;98645.79;;;16.03;64.15
58919;BME280;44704;50.122;19.932;2022-07-29T04:46:44;98653.63;;;16.07;64.35
58919;BME280;44704;50.122;19.932;2022-07-29T04:49:10;98660.23;;;16.11;64.23
58919;BME280;44704;50.122;19.932;2022-07-29T04:51:36;98653.30;;;16.15;64.28
58919;BME280;44704;50.122;19.932;2022-07-29T04:54:03;98651.20;;;16.20;64.48
58919;BME280;44704;50.122;19.932;2022-07-29T04:56:29;98646.58;;;16.25;64.59
58919;BME280;44704;50.122;19.932;2022-07-29T04:58:55;98640.02;;;16.30;64.33
58919;BME280;44704;50.122;19.932;2022-07-29T05:01:21;98635.28;;;16.34;63.97
58919;BME280;44704;50.122;19.932;2022-07-29T05:03:48;98629.01;;;16.38;64.24
58919;BME280;44704;50.122;19.932;2022-07-29T05:06:14;98632.30;;;16.41;63.76
58919;BME280;44704;50.122;19.932;2022-07-29T05:08:40;98634.77;;;16.46;63.81
58919;BME280;44704;50.122;19.932;2022-07-29T05:11:06;98637.17;;;16.49;63.68
58919;BME280;44704;50.122;19.932;2022-07-29T05:13:32;98637.48;;;16.55;63.57
58919;BME280;44704;50.122;19.932;2022-07-29T05:15:59;98634.55;;;16.59;63.96
58919;BME280;44704;50.122;19.932;2022-07-29T05:18:25;98633.33;;;16.65;63.93
58919;BME280;44704;50.122;19.932;2022-07-29T05:20:51;98622.64;;;16.69;63.63
58919;BME280;44704;50.122;19.932;2022-07-29T05:23:17;98628.19;;;16.74;62.87
58919;BME280;44704;50.122;19.932;2022-07-29T05:25:43;98628.50;;;16.78;62.86
58919;BME280;44704;50.122;19.932;2022-07-29T05:28:09;98632.00;;;16.85;62.88
58919;BME280;44704;50.122;19.932;2022-07-29T05:30:36;98634.95;;;16.92;62.89
58919;BME280;44704;50.122;19.932;2022-07-29T05:33:02;98637.06;;;16.98;62.79
58919;BME280;44704;50.122;19.932;2022-07-29T05:35:28;98631.80;;;17.04;62.71
58919;BME280;44704;50.122;19.932;2022-07-29T05:37:54;98631.16;;;17.12;62.62
58919;BME280;44704;50.122;19.932;2022-07-29T05:40:20;98627.49;;;17.18;62.26
58919;BME280;44704;50.122;19.932;2022-07-29T05:42:47;98627.57;;;17.24;62.05
58919;BME280;44704;50.122;19.932;2022-07-29T05:45:13;98625.77;;;17.31;61.83
58919;BME280;44704;50.122;19.932;2022-07-29T05:47:39;98629.13;;;17.38;61.81
58919;BME280;44704;50.122;19.932;2022-07-29T05:50:05;98630.67;;;17.46;61.93
58919;BME280;44704;50.122;19.932;2022-07-29T05:52:32;98634.41;;;17.54;61.94
58919;BME280;44704;50.122;19.932;2022-07-29T05:54:58;98633.83;;;17.60;61.69
58919;BME280;44704;50.122;19.932;2022-07-29T05:57:24;98634.73;;;17.66;61.59
58919;BME280;44704;50.122;19.932;2022-07-29T05:59:50;98635.98;;;17.73;61.55
58919;BME280;44704;50.122;19.932;2022-07-29T06:02:17;98640.38;;;17.81;61.74
58919;BME280;44704;50.122;19.932;2022-07-29T06:04:43;98640.01;;;17.90;61.47
58919;BME280;44704;50.122;19.932;2022-07-29T06:07:12;98641.31;;;17.97;61.39
58919;BME280;44704;50.122;19.932;2022-07-29T06:09:46;98647.27;;;18.05;61.21
58919;BME280;44704;50.122;19.932;2022-07-29T06:12:12;98644.01;;;18.12;61.05
58919;BME280;44704;50.122;19.932;2022-07-29T06:14:38;98644.09;;;18.20;61.19
58919;BME280;44704;50.122;19.932;2022-07-29T06:17:04;98643.23;;;18.29;61.10
58919;BME280;44704;50.122;19.932;2022-07-29T06:19:45;98644.84;;;18.38;61.06
58919;BME280;44704;50.122;19.932;2022-07-29T06:22:12;98640.23;;;18.47;60.67
58919;BME280;44704;50.122;19.932;2022-07-29T06:24:38;98638.36;;;18.56;60.43
58919;BME280;44704;50.122;19.932;2022-07-29T06:27:07;98640.58;;;18.65;60.52
58919;BME280;44704;50.122;19.932;2022-07-29T06:29:33;98637.63;;;18.75;60.67
58919;BME280;44704;50.122;19.932;2022-07-29T06:31:59;98637.33;;;18.86;60.55
58919;BME280;44704;50.122;19.932;2022-07-29T06:34:25;98639.69;;;18.96;60.51
58919;BME280;44704;50.122;19.932;2022-07-29T06:36:51;98639.17;;;19.06;60.40
58919;BME280;44704;50.122;19.932;2022-07-29T06:39:18;98637.81;;;19.16;59.99
58919;BME280;44704;50.122;19.932;2022-07-29T06:41:48;98637.91;;;19.25;59.59
58919;BME280;44704;50.122;19.932;2022-07-29T06:44:15;98638.84;;;19.33;59.28
58919;BME280;44704;50.122;19.932;2022-07-29T06:46:56;98639.88;;;19.45;59.45
58919;BME280;44704;50.122;19.932;2022-07-29T06:49:22;98636.05;;;19.57;59.39
58919;BME280;44704;50.122;19.932;2022-07-29T06:51:49;98636.86;;;19.69;58.95
58919;BME280;44704;50.122;19.932;2022-07-29T06:54:15;98635.23;;;19.81;58.71
58919;BME280;44704;50.122;19.932;2022-07-29T06:56:42;98636.26;;;19.94;58.65
58919;BME280;44704;50.122;19.932;2022-07-29T06:59:09;98636.36;;;20.10;58.68
58919;BME280;44704;50.122;19.932;2022-07-29T07:01:37;98635.94;;;20.28;58.40
58919;BME280;44704;50.122;19.932;2022-07-29T07:04:03;98630.79;;;20.49;58.42
58919;BME280;44704;50.122;19.932;2022-07-29T07:06:30;98631.01;;;20.67;58.02
58919;BME280;44704;50.122;19.932;2022-07-29T07:08:56;98631.52;;;20.81;57.54
58919;BME280;44704;50.122;19.932;2022-07-29T07:11:22;98624.92;;;20.92;56.96
58919;BME280;44704;50.122;19.932;2022-07-29T07:14:03;98628.32;;;21.02;56.95
58919;BME280;44704;50.122;19.932;2022-07-29T07:16:29;98622.35;;;21.11;57.44
58919;BME280;44704;50.122;19.932;2022-07-29T07:18:55;98617.79;;;21.20;56.60
58919;BME280;44704;50.122;19.932;2022-07-29T07:21:21;98613.88;;;21.29;56.33
58919;BME280;44704;50.122;19.932;2022-07-29T07:23:47;98614.06;;;21.28;55.75
58919;BME280;44704;50.122;19.932;2022-07-29T07:26:13;98616.17;;;21.22;55.87
58919;BME280;44704;50.122;19.932;2022-07-29T07:28:39;98618.72;;;21.23;55.82
58919;BME280;44704;50.122;19.932;2022-07-29T07:31:05;98615.98;;;21.29;56.15
58919;BME280;44704;50.122;19.932;2022-07-29T07:33:31;98616.11;;;21.38;55.77
58919;BME280;44704;50.122;19.932;2022-07-29T07:35:57;98618.05;;;21.48;56.16
58919;BME280;44704;50.122;19.932;2022-07-29T07:38:24;98624.69;;;21.58;55.85
58919;BME280;44704;50.122;19.932;2022-07-29T07:40:50;98621.25;;;21.68;55.27
58919;BME280;44704;50.122;19.932;2022-07-29T07:43:16;98621.88;;;21.78;55.30
58919;BME280;44704;50.122;19.932;2022-07-29T07:45:42;98622.01;;;21.89;55.26
58919;BME280;44704;50.122;19.932;2022-07-29T07:48:08;98621.50;;;22.00;54.87
58919;BME280;44704;50.122;19.932;2022-07-29T07:50:50;98622.60;;;22.11;54.40
58919;BME280;44704;50.122;19.932;2022-07-29T07:53:17;98622.98;;;22.23;54.31
58919;BME280;44704;50.122;19.932;2022-07-29T07:55:43;98623.77;;;22.35;54.13
58919;BME280;44704;50.122;19.932;2022-07-29T07:58:09;98621.18;;;22.45;53.65
58919;BME280;44704;50.122;19.932;2022-07-29T08:00:35;98617.38;;;22.56;53.32
58919;BME280;44704;50.122;19.932;2022-07-29T08:03:01;98616.13;;;22.69;53.11
58919;BME280;44704;50.122;19.932;2022-07-29T08:05:28;98612.76;;;22.80;52.42
58919;BME280;44704;50.122;19.932;2022-07-29T08:07:54;98616.40;;;22.86;52.18
58919;BME280;44704;50.122;19.932;2022-07-29T08:10:20;98615.80;;;22.94;51.85
58919;BME280;44704;50.122;19.932;2022-07-29T08:13:05;98611.60;;;23.02;51.67
58919;BME280;44704;50.122;19.932;2022-07-29T08:15:32;98613.09;;;23.13;51.34
58919;BME280;44704;50.122;19.932;2022-07-29T08:17:59;98607.29;;;23.21;50.63
58919;BME280;44704;50.122;19.932;2022-07-29T08:20:39;98613.41;;;23.32;51.33
58919;BME280;44704;50.122;19.932;2022-07-29T08:23:06;98612.20;;;23.38;50.85
58919;BME280;44704;50.122;19.932;2022-07-29T08:25:37;98613.73;;;23.46;50.92
58919;BME280;44704;50.122;19.932;2022-07-29T08:28:07;98613.73;;;23.55;50.77
58919;BME280;44704;50.122;19.932;2022-07-29T08:30:34;98610.77;;;23.62;50.22
58919;BME280;44704;50.122;19.932;2022-07-29T08:33:00;98611.08;;;23.70;50.36
58919;BME280;44704;50.122;19.932;2022-07-29T08:35:41;98611.61;;;23.83;50.37
58919;BME280;44704;50.122;19.932;2022-07-29T08:38:07;98610.16;;;23.95;49.56
58919;BME280;44704;50.122;19.932;2022-07-29T08:40:33;98609.46;;;23.97;48.77
58919;BME280;44704;50.122;19.932;2022-07-29T08:43:14;98616.11;;;24.00;48.82
58919;BME280;44704;50.122;19.932;2022-07-29T08:45:44;98620.55;;;24.09;49.03
58919;BME280;44704;50.122;19.932;2022-07-29T08:48:18;98618.98;;;24.19;48.56
58919;BME280;44704;50.122;19.932;2022-07-29T08:50:44;98616.73;;;24.25;48.12
58919;BME280;44704;50.122;19.932;2022-07-29T08:53:11;98617.60;;;24.34;48.40
58919;BME280;44704;50.122;19.932;2022-07-29T08:55:44;98614.13;;;24.44;48.71
58919;BME280;44704;50.122;19.932;2022-07-29T08:58:11;98609.51;;;24.59;47.97
58919;BME280;44704;50.122;19.932;2022-07-29T09:00:40;98606.11;;;24.70;47.96
58919;BME280;44704;50.122;19.932;2022-07-29T09:03:07;98602.63;;;24.79;47.41
58919;BME280;44704;50.122;19.932;2022-07-29T09:05:34;98600.23;;;24.88;47.01
58919;BME280;44704;50.122;19.932;2022-07-29T09:08:01;98599.94;;;24.96;46.67
58919;BME280;44704;50.122;19.932;2022-07-29T09:10:27;98600.23;;;25.12;46.80
58919;BME280;44704;50.122;19.932;2022-07-29T09:12:54;98600.10;;;25.25;46.41
58919;BME280;44704;50.122;19.932;2022-07-29T09:15:20;98602.31;;;25.34;45.84
58919;BME280;44704;50.122;19.932;2022-07-29T09:17:47;98598.77;;;25.41;45.54
58919;BME280;44704;50.122;19.932;2022-07-29T09:20:20;98598.23;;;25.50;45.77
58919;BME280;44704;50.122;19.932;2022-07-29T09:22:50;98595.55;;;25.58;45.45
58919;BME280;44704;50.122;19.932;2022-07-29T09:28:33;98595.63;;;25.75;44.76
58919;BME280;44704;50.122;19.932;2022-07-29T09:33:21;98598.86;;;25.87;44.48
58919;BME280;44704;50.122;19.932;2022-07-29T09:38:28;98588.61;;;25.99;44.67
58919;BME280;44704;50.122;19.932;2022-07-29T09:41:09;98587.89;;;26.17;44.77
58919;BME280;44704;50.122;19.932;2022-07-29T09:43:36;98582.38;;;26.26;44.64
58919;BME280;44704;50.122;19.932;2022-07-29T09:46:12;98580.13;;;26.28;44.12
58919;BME280;44704;50.122;19.932;2022-07-29T09:48:38;98573.41;;;26.34;44.22
58919;BME280;44704;50.122;19.932;2022-07-29T09:51:04;98569.76;;;26.47;44.45
58919;BME280;44704;50.122;19.932;2022-07-29T09:53:33;98570.20;;;26.63;44.42
58919;BME280;44704;50.122;19.932;2022-07-29T09:56:00;98564.45;;;26.77;44.12
58919;BME280;44704;50.122;19.932;2022-07-29T09:58:26;98571.02;;;26.88;43.84
58919;BME280;44704;50.122;19.932;2022-07-29T10:00:53;98566.56;;;26.96;43.49
58919;BME280;44704;50.122;19.932;2022-07-29T10:03:20;98559.99;;;26.98;43.30
58919;BME280;44704;50.122;19.932;2022-07-29T10:06:03;98564.67;;;27.02;43.14
58919;BME280;44704;50.122;19.932;2022-07-29T10:08:30;98564.45;;;27.05;42.82
58919;BME280;44704;50.122;19.932;2022-07-29T10:13:51;98558.83;;;27.27;42.98
58919;BME280;44704;50.122;19.932;2022-07-29T10:16:32;98555.54;;;27.37;42.76
58919;BME280;44704;50.122;19.932;2022-07-29T10:18:58;98554.34;;;27.43;42.19
58919;BME280;44704;50.122;19.932;2022-07-29T10:21:26;98552.10;;;27.46;41.94
58919;BME280;44704;50.122;19.932;2022-07-29T10:23:55;98552.80;;;27.48;41.69
58919;BME280;44704;50.122;19.932;2022-07-29T10:26:22;98553.77;;;27.53;42.15
58919;BME280;44704;50.122;19.932;2022-07-29T10:28:49;98550.36;;;27.69;42.30
58919;BME280;44704;50.122;19.932;2022-07-29T10:31:18;98554.02;;;27.88;41.73
58919;BME280;44704;50.122;19.932;2022-07-29T10:36:48;98545.84;;;28.29;41.87
58919;BME280;44704;50.122;19.932;2022-07-29T10:44:21;98539.94;;;28.83;40.21
58919;BME280;44704;50.122;19.932;2022-07-29T10:46:48;98536.77;;;28.98;40.16
58919;BME280;44704;50.122;19.932;2022-07-29T10:49:18;98535.05;;;29.14;40.02
58919;BME280;44704;50.122;19.932;2022-07-29T10:59:32;98512.77;;;29.14;39.09
58919;BME280;44704;50.122;19.932;2022-07-29T11:01:58;98519.36;;;29.18;39.23
58919;BME280;44704;50.122;19.932;2022-07-29T11:09:30;98515.28;;;29.37;39.11
58919;BME280;44704;50.122;19.932;2022-07-29T11:11:57;98511.77;;;29.46;38.78
58919;BME280;44704;50.122;19.932;2022-07-29T11:17:04;98512.02;;;29.67;38.58
58919;BME280;44704;50.122;19.932;2022-07-29T11:19:45;98508.02;;;29.64;38.18
58919;BME280;44704;50.122;19.932;2022-07-29T11:22:12;98507.05;;;29.38;38.06
58919;BME280;44704;50.122;19.932;2022-07-29T11:27:36;98511.94;;;28.84;39.72
58919;BME280;44704;50.122;19.932;2022-07-29T11:30:05;98515.55;;;28.70;39.72
58919;BME280;44704;50.122;19.932;2022-07-29T11:32:38;98520.08;;;28.58;39.82
58919;BME280;44704;50.122;19.932;2022-07-29T11:37:40;98521.15;;;28.60;40.06
58919;BME280;44704;50.122;19.932;2022-07-29T11:45:04;98506.81;;;28.98;40.22
58919;BME280;44704;50.122;19.932;2022-07-29T11:47:31;98505.59;;;29.04;39.95
58919;BME280;44704;50.122;19.932;2022-07-29T11:49:59;98504.81;;;29.10;39.48
58919;BME280;44704;50.122;19.932;2022-07-29T11:52:35;98502.75;;;29.29;40.18
58919;BME280;44704;50.122;19.932;2022-07-29T11:55:04;98499.17;;;29.58;39.91
58919;BME280;44704;50.122;19.932;2022-07-29T11:57:30;98500.19;;;29.84;39.45
58919;BME280;44704;50.122;19.932;2022-07-29T11:59:57;98497.23;;;30.12;38.80
58919;BME280;44704;50.122;19.932;2022-07-29T12:02:23;98494.98;;;30.31;37.98
58919;BME280;44704;50.122;19.932;2022-07-29T12:04:53;98488.61;;;30.43;37.00
58919;BME280;44704;50.122;19.932;2022-07-29T12:10:00;98483.52;;;30.62;37.34
58919;BME280;44704;50.122;19.932;2022-07-29T12:12:27;98479.80;;;30.67;36.65
58919;BME280;44704;50.122;19.932;2022-07-29T12:14:53;98472.61;;;30.74;36.87
58919;BME280;44704;50.122;19.932;2022-07-29T12:17:54;98470.85;;;30.87;37.24
58919;BME280;44704;50.122;19.932;2022-07-29T12:20:14;98464.88;;;31.00;36.23
58919;BME280;44704;50.122;19.932;2022-07-29T12:22:48;98463.52;;;31.08;36.41
58919;BME280;44704;50.122;19.932;2022-07-29T12:25:14;98461.30;;;31.16;36.11
58919;BME280;44704;50.122;19.932;2022-07-29T12:27:42;98464.86;;;31.24;35.78
58919;BME280;44704;50.122;19.932;2022-07-29T12:30:12;98464.72;;;31.33;36.29
58919;BME280;44704;50.122;19.932;2022-07-29T12:32:40;98461.41;;;31.39;35.15
58919;BME280;44704;50.122;19.932;2022-07-29T12:37:47;98462.20;;;31.49;35.22
58919;BME280;44704;50.122;19.932;2022-07-29T12:40:14;98457.56;;;31.59;35.63
58919;BME280;44704;50.122;19.932;2022-07-29T12:43:04;98454.25;;;31.66;35.24
58919;BME280;44704;50.122;19.932;2022-07-29T12:45:28;98454.63;;;31.72;34.93
58919;BME280;44704;50.122;19.932;2022-07-29T12:47:55;98457.40;;;31.84;34.61
58919;BME280;44704;50.122;19.932;2022-07-29T12:50:21;98456.30;;;31.96;34.47
58919;BME280;44704;50.122;19.932;2022-07-29T12:52:47;98453.56;;;32.03;34.02
58919;BME280;44704;50.122;19.932;2022-07-29T12:55:13;98448.01;;;31.86;34.02
58919;BME280;44704;50.122;19.932;2022-07-29T12:57:46;98449.08;;;31.71;34.89
58919;BME280;44704;50.122;19.932;2022-07-29T13:00:13;98445.13;;;31.62;35.15
58919;BME280;44704;50.122;19.932;2022-07-29T13:02:40;98443.50;;;31.52;35.06
58919;BME280;44704;50.122;19.932;2022-07-29T13:05:07;98441.09;;;31.53;35.54
58919;BME280;44704;50.122;19.932;2022-07-29T13:07:34;98436.41;;;31.60;35.31
58919;BME280;44704;50.122;19.932;2022-07-29T13:10:12;98437.23;;;31.61;35.39
58919;BME280;44704;50.122;19.932;2022-07-29T13:12:39;98436.84;;;31.49;35.56
58919;BME280;44704;50.122;19.932;2022-07-29T13:15:12;98432.40;;;31.33;35.11
58919;BME280;44704;50.122;19.932;2022-07-29T13:17:39;98429.82;;;31.05;35.22
58919;BME280;44704;50.122;19.932;2022-07-29T13:20:07;98431.13;;;30.84;35.97
58919;BME280;44704;50.122;19.932;2022-07-29T13:22:34;98430.02;;;30.84;36.46
58919;BME280;44704;50.122;19.932;2022-07-29T13:25:02;98428.60;;;30.97;36.67
58919;BME280;44704;50.122;19.932;2022-07-29T13:27:29;98428.35;;;31.10;36.50
58919;BME280;44704;50.122;19.932;2022-07-29T13:29:56;98420.73;;;31.25;36.52
58919;BME280;44704;50.122;19.932;2022-07-29T13:32:23;98419.64;;;31.49;36.21
58919;BME280;44704;50.122;19.932;2022-07-29T13:34:51;98419.04;;;31.78;35.94
58919;BME280;44704;50.122;19.932;2022-07-29T13:37:17;98416.83;;;32.00;35.01
58919;BME280;44704;50.122;19.932;2022-07-29T13:39:44;98414.72;;;32.16;34.69
58919;BME280;44704;50.122;19.932;2022-07-29T13:42:25;98413.69;;;32.29;34.93
58919;BME280;44704;50.122;19.932;2022-07-29T13:44:51;98407.58;;;32.42;35.00
58919;BME280;44704;50.122;19.932;2022-07-29T13:47:18;98404.80;;;32.50;34.78
58919;BME280;44704;50.122;19.932;2022-07-29T13:49:44;98397.95;;;32.59;34.43
58919;BME280;44704;50.122;19.932;2022-07-29T13:52:25;98391.88;;;32.67;33.85
58919;BME280;44704;50.122;19.932;2022-07-29T13:54:51;98393.41;;;32.67;33.50
58919;BME280;44704;50.122;19.932;2022-07-29T13:57:17;98388.80;;;32.77;34.03
58919;BME280;44704;50.122;19.932;2022-07-29T13:59:43;98389.48;;;32.88;33.63
58919;BME280;44704;50.122;19.932;2022-07-29T14:02:10;98390.29;;;32.90;33.01